sensor_id;sensor_type;location;lat;lon;timestamp;P1;durP1;ratioP1;P2;durP2;ratioP2
73980;SDS011;62348;51.412;5.436;2023-03-01T00:01:59;9.43;;;6.32;;
73980;SDS011;62348;51.412;5.436;2023-03-01T00:04:24;9.63;;;6.32;;
73980;SDS011;62348;51.412;5.436;2023-03-01T00:06:50;11.07;;;6.95;;
73980;SDS011;62348;51.412;5.436;2023-03-01T00:09:16;7.60;;;6.70;;
73980;SDS011;62348;51.412;5.436;2023-03-01T00:11:42;8.88;;;6.47;;
73980;SDS011;62348;51.412;5.436;2023-03-01T00:14:07;12.38;;;6.70;;
73980;SDS011;62348;51.412;5.436;2023-03-01T00:16:34;11.35;;;7.30;;
73980;SDS011;62348;51.412;5.436;2023-03-01T00:19:01;8.82;;;6.53;;
73980;SDS011;62348;51.412;5.436;2023-03-01T00:21:30;12.20;;;7.22;;
73980;SDS011;62348;51.412;5.436;2023-03-01T00:23:56;10.18;;;6.35;;
73980;SDS011;62348;51.412;5.436;2023-03-01T00:26:22;12.27;;;7.80;;
73980;SDS011;62348;51.412;5.436;2023-03-01T00:28:49;10.43;;;7.43;;
73980;SDS011;62348;51.412;5.436;2023-03-01T00:31:15;10.30;;;6.70;;
73980;SDS011;62348;51.412;5.436;2023-03-01T00:33:43;8.98;;;6.80;;
73980;SDS011;62348;51.412;5.436;2023-03-01T00:36:09;10.75;;;7.53;;
73980;SDS011;62348;51.412;5.436;2023-03-01T00:38:36;10.43;;;6.65;;
73980;SDS011;62348;51.412;5.436;2023-03-01T00:41:06;8.93;;;6.70;;
73980;SDS011;62348;51.412;5.436;2023-03-01T00:43:32;7.18;;;5.82;;
73980;SDS011;62348;51.412;5.436;2023-03-01T00:46:04;7.57;;;5.93;;
73980;SDS011;62348;51.412;5.436;2023-03-01T00:48:32;9.95;;;6.30;;
73980;SDS011;62348;51.412;5.436;2023-03-01T00:51:03;9.27;;;6.40;;
73980;SDS011;62348;51.412;5.436;2023-03-01T00:53:33;8.60;;;7.10;;
73980;SDS011;62348;51.412;5.436;2023-03-01T00:55:59;9.65;;;6.30;;
73980;SDS011;62348;51.412;5.436;2023-03-01T00:58:24;9.27;;;6.15;;
73980;SDS011;62348;51.412;5.436;2023-03-01T01:00:50;8.25;;;6.53;;
73980;SDS011;62348;51.412;5.436;2023-03-01T01:03:16;13.95;;;7.25;;
73980;SDS011;62348;51.412;5.436;2023-03-01T01:05:41;11.25;;;7.38;;
73980;SDS011;62348;51.412;5.436;2023-03-01T01:08:06;10.98;;;6.43;;
73980;SDS011;62348;51.412;5.436;2023-03-01T01:10:33;7.63;;;6.47;;
73980;SDS011;62348;51.412;5.436;2023-03-01T01:12:59;10.15;;;6.55;;
73980;SDS011;62348;51.412;5.436;2023-03-01T01:15:24;8.88;;;5.68;;
73980;SDS011;62348;51.412;5.436;2023-03-01T01:17:50;8.40;;;6.05;;
73980;SDS011;62348;51.412;5.436;2023-03-01T01:20:16;10.18;;;6.72;;
73980;SDS011;62348;51.412;5.436;2023-03-01T01:22:41;9.80;;;6.57;;
73980;SDS011;62348;51.412;5.436;2023-03-01T01:25:07;9.23;;;6.90;;
73980;SDS011;62348;51.412;5.436;2023-03-01T01:27:32;8.60;;;6.60;;
73980;SDS011;62348;51.412;5.436;2023-03-01T01:29:58;11.45;;;6.60;;
73980;SDS011;62348;51.412;5.436;2023-03-01T01:32:23;12.05;;;6.13;;
73980;SDS011;62348;51.412;5.436;2023-03-01T01:34:49;10.75;;;6.30;;
73980;SDS011;62348;51.412;5.436;2023-03-01T01:37:14;7.32;;;6.10;;
73980;SDS011;62348;51.412;5.436;2023-03-01T01:39:39;10.48;;;7.03;;
73980;SDS011;62348;51.412;5.436;2023-03-01T01:42:05;10.00;;;6.57;;
73980;SDS011;62348;51.412;5.436;2023-03-01T01:44:32;9.52;;;6.97;;
73980;SDS011;62348;51.412;5.436;2023-03-01T01:52:20;8.63;;;6.25;;
73980;SDS011;62348;51.412;5.436;2023-03-01T01:55:12;8.73;;;6.53;;
73980;SDS011;62348;51.412;5.436;2023-03-01T01:57:44;8.35;;;5.80;;
73980;SDS011;62348;51.412;5.436;2023-03-01T02:02:46;9.32;;;6.20;;
73980;SDS011;62348;51.412;5.436;2023-03-01T02:07:44;7.25;;;6.07;;
73980;SDS011;62348;51.412;5.436;2023-03-01T02:10:11;7.50;;;6.35;;
73980;SDS011;62348;51.412;5.436;2023-03-01T02:12:36;10.38;;;6.70;;
73980;SDS011;62348;51.412;5.436;2023-03-01T02:15:04;9.07;;;6.35;;
73980;SDS011;62348;51.412;5.436;2023-03-01T02:17:30;10.40;;;6.70;;
73980;SDS011;62348;51.412;5.436;2023-03-01T02:20:04;11.52;;;6.78;;
73980;SDS011;62348;51.412;5.436;2023-03-01T02:22:33;6.70;;;6.00;;
73980;SDS011;62348;51.412;5.436;2023-03-01T02:27:59;9.32;;;6.97;;
73980;SDS011;62348;51.412;5.436;2023-03-01T02:30:43;11.02;;;6.63;;
73980;SDS011;62348;51.412;5.436;2023-03-01T02:33:31;8.70;;;6.38;;
73980;SDS011;62348;51.412;5.436;2023-03-01T02:36:01;9.88;;;6.75;;
73980;SDS011;62348;51.412;5.436;2023-03-01T02:38:29;9.10;;;7.15;;
73980;SDS011;62348;51.412;5.436;2023-03-01T02:40:56;9.52;;;7.05;;
73980;SDS011;62348;51.412;5.436;2023-03-01T02:43:22;9.63;;;7.00;;
73980;SDS011;62348;51.412;5.436;2023-03-01T02:45:52;11.48;;;7.32;;
73980;SDS011;62348;51.412;5.436;2023-03-01T02:48:18;10.15;;;6.60;;
73980;SDS011;62348;51.412;5.436;2023-03-01T02:51:00;7.47;;;6.32;;
73980;SDS011;62348;51.412;5.436;2023-03-01T02:56:00;11.40;;;7.50;;
73980;SDS011;62348;51.412;5.436;2023-03-01T02:58:26;8.77;;;6.68;;
73980;SDS011;62348;51.412;5.436;2023-03-01T03:00:51;9.60;;;6.75;;
73980;SDS011;62348;51.412;5.436;2023-03-01T03:03:17;12.60;;;6.50;;
73980;SDS011;62348;51.412;5.436;2023-03-01T03:05:45;10.20;;;7.30;;
73980;SDS011;62348;51.412;5.436;2023-03-01T03:08:10;10.05;;;6.07;;
73980;SDS011;62348;51.412;5.436;2023-03-01T03:10:37;11.10;;;7.35;;
73980;SDS011;62348;51.412;5.436;2023-03-01T03:13:06;9.60;;;6.75;;
73980;SDS011;62348;51.412;5.436;2023-03-01T03:15:33;8.77;;;7.53;;
73980;SDS011;62348;51.412;5.436;2023-03-01T03:18:01;11.48;;;6.38;;
73980;SDS011;62348;51.412;5.436;2023-03-01T03:20:27;12.68;;;7.45;;
73980;SDS011;62348;51.412;5.436;2023-03-01T03:22:54;16.85;;;7.38;;
73980;SDS011;62348;51.412;5.436;2023-03-01T03:25:21;8.57;;;6.13;;
73980;SDS011;62348;51.412;5.436;2023-03-01T03:27:47;11.38;;;8.15;;
73980;SDS011;62348;51.412;5.436;2023-03-01T03:30:16;8.80;;;6.72;;
73980;SDS011;62348;51.412;5.436;2023-03-01T03:32:44;11.48;;;8.00;;
73980;SDS011;62348;51.412;5.436;2023-03-01T03:35:28;10.70;;;7.55;;
73980;SDS011;62348;51.412;5.436;2023-03-01T03:37:55;10.00;;;7.00;;
73980;SDS011;62348;51.412;5.436;2023-03-01T03:40:33;9.38;;;7.22;;
73980;SDS011;62348;51.412;5.436;2023-03-01T03:43:00;12.10;;;7.35;;
73980;SDS011;62348;51.412;5.436;2023-03-01T03:45:26;9.60;;;6.65;;
73980;SDS011;62348;51.412;5.436;2023-03-01T03:47:52;8.60;;;6.15;;
73980;SDS011;62348;51.412;5.436;2023-03-01T03:50:17;8.38;;;6.50;;
73980;SDS011;62348;51.412;5.436;2023-03-01T03:52:43;8.10;;;6.75;;
73980;SDS011;62348;51.412;5.436;2023-03-01T03:55:09;7.40;;;6.47;;
73980;SDS011;62348;51.412;5.436;2023-03-01T03:57:37;10.32;;;6.63;;
73980;SDS011;62348;51.412;5.436;2023-03-01T04:00:04;11.15;;;7.00;;
73980;SDS011;62348;51.412;5.436;2023-03-01T04:02:31;9.05;;;6.28;;
73980;SDS011;62348;51.412;5.436;2023-03-01T04:04:56;10.23;;;6.88;;
73980;SDS011;62348;51.412;5.436;2023-03-01T04:07:21;10.23;;;6.90;;
73980;SDS011;62348;51.412;5.436;2023-03-01T04:09:47;11.05;;;7.25;;
73980;SDS011;62348;51.412;5.436;2023-03-01T04:12:12;10.88;;;7.05;;
73980;SDS011;62348;51.412;5.436;2023-03-01T04:14:37;11.40;;;6.72;;
73980;SDS011;62348;51.412;5.436;2023-03-01T04:17:03;12.32;;;7.13;;
73980;SDS011;62348;51.412;5.436;2023-03-01T04:19:30;9.95;;;6.90;;
73980;SDS011;62348;51.412;5.436;2023-03-01T04:22:01;11.00;;;7.40;;
73980;SDS011;62348;51.412;5.436;2023-03-01T04:24:32;11.00;;;7.30;;
73980;SDS011;62348;51.412;5.436;2023-03-01T04:26:58;10.68;;;7.53;;
73980;SDS011;62348;51.412;5.436;2023-03-01T04:29:23;10.65;;;6.88;;
73980;SDS011;62348;51.412;5.436;2023-03-01T04:31:49;12.35;;;7.63;;
73980;SDS011;62348;51.412;5.436;2023-03-01T04:34:14;9.95;;;7.32;;
73980;SDS011;62348;51.412;5.436;2023-03-01T04:36:39;11.90;;;7.15;;
73980;SDS011;62348;51.412;5.436;2023-03-01T04:39:05;11.05;;;7.40;;
73980;SDS011;62348;51.412;5.436;2023-03-01T04:41:37;11.88;;;7.45;;
73980;SDS011;62348;51.412;5.436;2023-03-01T04:44:08;9.50;;;7.00;;
73980;SDS011;62348;51.412;5.436;2023-03-01T04:46:34;10.85;;;7.95;;
73980;SDS011;62348;51.412;5.436;2023-03-01T04:49:00;10.75;;;7.38;;
73980;SDS011;62348;51.412;5.436;2023-03-01T04:51:27;11.00;;;7.55;;
73980;SDS011;62348;51.412;5.436;2023-03-01T04:53:53;10.57;;;8.25;;
73980;SDS011;62348;51.412;5.436;2023-03-01T04:56:18;12.77;;;8.23;;
73980;SDS011;62348;51.412;5.436;2023-03-01T04:58:44;14.80;;;8.20;;
73980;SDS011;62348;51.412;5.436;2023-03-01T05:01:19;12.32;;;7.13;;
73980;SDS011;62348;51.412;5.436;2023-03-01T05:03:46;11.60;;;6.85;;
73980;SDS011;62348;51.412;5.436;2023-03-01T05:06:14;9.90;;;7.53;;
73980;SDS011;62348;51.412;5.436;2023-03-01T05:08:40;12.10;;;8.07;;
73980;SDS011;62348;51.412;5.436;2023-03-01T05:11:06;11.50;;;8.55;;
73980;SDS011;62348;51.412;5.436;2023-03-01T05:13:34;11.10;;;7.28;;
73980;SDS011;62348;51.412;5.436;2023-03-01T05:16:01;12.80;;;7.82;;
73980;SDS011;62348;51.412;5.436;2023-03-01T05:18:28;10.85;;;7.20;;
73980;SDS011;62348;51.412;5.436;2023-03-01T05:21:05;11.13;;;7.35;;
73980;SDS011;62348;51.412;5.436;2023-03-01T05:23:33;12.85;;;7.75;;
73980;SDS011;62348;51.412;5.436;2023-03-01T05:25:59;11.10;;;7.32;;
73980;SDS011;62348;51.412;5.436;2023-03-01T05:28:27;15.15;;;8.38;;
73980;SDS011;62348;51.412;5.436;2023-03-01T05:30:53;12.32;;;8.63;;
73980;SDS011;62348;51.412;5.436;2023-03-01T05:33:19;11.27;;;7.85;;
73980;SDS011;62348;51.412;5.436;2023-03-01T05:35:46;11.75;;;7.68;;
73980;SDS011;62348;51.412;5.436;2023-03-01T05:38:13;11.48;;;7.72;;
73980;SDS011;62348;51.412;5.436;2023-03-01T05:40:39;11.75;;;7.82;;
73980;SDS011;62348;51.412;5.436;2023-03-01T05:43:06;14.15;;;7.85;;
73980;SDS011;62348;51.412;5.436;2023-03-01T05:45:32;10.85;;;7.68;;
73980;SDS011;62348;51.412;5.436;2023-03-01T05:47:57;10.80;;;8.07;;
73980;SDS011;62348;51.412;5.436;2023-03-01T05:50:27;11.85;;;7.97;;
73980;SDS011;62348;51.412;5.436;2023-03-01T05:55:22;10.68;;;7.28;;
73980;SDS011;62348;51.412;5.436;2023-03-01T05:57:48;11.20;;;7.85;;
73980;SDS011;62348;51.412;5.436;2023-03-01T06:00:15;10.57;;;7.10;;
73980;SDS011;62348;51.412;5.436;2023-03-01T06:02:42;12.32;;;7.78;;
73980;SDS011;62348;51.412;5.436;2023-03-01T06:05:08;11.13;;;7.20;;
73980;SDS011;62348;51.412;5.436;2023-03-01T06:07:35;11.02;;;7.90;;
73980;SDS011;62348;51.412;5.436;2023-03-01T06:10:01;13.98;;;8.27;;
73980;SDS011;62348;51.412;5.436;2023-03-01T06:12:30;15.27;;;9.05;;
73980;SDS011;62348;51.412;5.436;2023-03-01T06:14:59;15.38;;;8.05;;
73980;SDS011;62348;51.412;5.436;2023-03-01T06:17:25;10.60;;;7.80;;
73980;SDS011;62348;51.412;5.436;2023-03-01T06:19:53;10.20;;;7.40;;
73980;SDS011;62348;51.412;5.436;2023-03-01T06:22:19;13.50;;;8.50;;
73980;SDS011;62348;51.412;5.436;2023-03-01T06:24:44;13.32;;;8.25;;
73980;SDS011;62348;51.412;5.436;2023-03-01T06:27:10;11.30;;;7.90;;
73980;SDS011;62348;51.412;5.436;2023-03-01T06:29:35;12.15;;;7.95;;
73980;SDS011;62348;51.412;5.436;2023-03-01T06:32:01;10.65;;;7.75;;
73980;SDS011;62348;51.412;5.436;2023-03-01T06:34:27;12.25;;;8.27;;
73980;SDS011;62348;51.412;5.436;2023-03-01T06:36:53;15.18;;;8.77;;
73980;SDS011;62348;51.412;5.436;2023-03-01T06:39:18;12.60;;;8.57;;
73980;SDS011;62348;51.412;5.436;2023-03-01T06:41:44;12.90;;;8.98;;
73980;SDS011;62348;51.412;5.436;2023-03-01T06:44:09;12.05;;;8.30;;
73980;SDS011;62348;51.412;5.436;2023-03-01T06:46:35;12.07;;;8.43;;
73980;SDS011;62348;51.412;5.436;2023-03-01T06:49:01;12.20;;;8.55;;
73980;SDS011;62348;51.412;5.436;2023-03-01T06:51:29;15.98;;;9.35;;
73980;SDS011;62348;51.412;5.436;2023-03-01T06:53:55;11.65;;;8.50;;
73980;SDS011;62348;51.412;5.436;2023-03-01T06:56:20;12.23;;;8.23;;
73980;SDS011;62348;51.412;5.436;2023-03-01T06:58:46;12.02;;;8.45;;
73980;SDS011;62348;51.412;5.436;2023-03-01T07:01:11;12.60;;;8.55;;
73980;SDS011;62348;51.412;5.436;2023-03-01T07:03:36;12.73;;;8.38;;
73980;SDS011;62348;51.412;5.436;2023-03-01T07:06:02;13.50;;;8.23;;
73980;SDS011;62348;51.412;5.436;2023-03-01T07:08:28;12.27;;;9.02;;
73980;SDS011;62348;51.412;5.436;2023-03-01T07:10:57;12.57;;;9.52;;
73980;SDS011;62348;51.412;5.436;2023-03-01T07:13:22;12.63;;;8.57;;
73980;SDS011;62348;51.412;5.436;2023-03-01T07:15:48;13.50;;;9.10;;
73980;SDS011;62348;51.412;5.436;2023-03-01T07:18:13;11.93;;;9.40;;
73980;SDS011;62348;51.412;5.436;2023-03-01T07:20:39;12.77;;;9.18;;
73980;SDS011;62348;51.412;5.436;2023-03-01T07:23:05;13.93;;;8.63;;
73980;SDS011;62348;51.412;5.436;2023-03-01T07:25:31;12.55;;;9.10;;
73980;SDS011;62348;51.412;5.436;2023-03-01T07:27:57;11.20;;;8.43;;
73980;SDS011;62348;51.412;5.436;2023-03-01T07:30:23;16.77;;;9.25;;
73980;SDS011;62348;51.412;5.436;2023-03-01T07:32:51;16.60;;;10.15;;
73980;SDS011;62348;51.412;5.436;2023-03-01T07:35:17;13.93;;;8.23;;
73980;SDS011;62348;51.412;5.436;2023-03-01T07:37:42;13.95;;;9.23;;
73980;SDS011;62348;51.412;5.436;2023-03-01T07:40:08;13.38;;;9.02;;
73980;SDS011;62348;51.412;5.436;2023-03-01T07:42:34;14.40;;;8.88;;
73980;SDS011;62348;51.412;5.436;2023-03-01T07:45:00;14.30;;;8.70;;
73980;SDS011;62348;51.412;5.436;2023-03-01T07:47:25;13.95;;;9.63;;
73980;SDS011;62348;51.412;5.436;2023-03-01T07:49:50;14.75;;;8.90;;
73980;SDS011;62348;51.412;5.436;2023-03-01T07:52:16;15.50;;;9.18;;
73980;SDS011;62348;51.412;5.436;2023-03-01T07:54:44;12.88;;;8.63;;
73980;SDS011;62348;51.412;5.436;2023-03-01T07:57:10;11.77;;;8.57;;
73980;SDS011;62348;51.412;5.436;2023-03-01T07:59:35;16.33;;;9.20;;
73980;SDS011;62348;51.412;5.436;2023-03-01T08:02:01;16.48;;;9.75;;
73980;SDS011;62348;51.412;5.436;2023-03-01T08:04:26;14.13;;;8.15;;
73980;SDS011;62348;51.412;5.436;2023-03-01T08:06:52;12.00;;;9.25;;
73980;SDS011;62348;51.412;5.436;2023-03-01T08:09:18;12.07;;;8.93;;
73980;SDS011;62348;51.412;5.436;2023-03-01T08:11:44;13.05;;;8.70;;
73980;SDS011;62348;51.412;5.436;2023-03-01T08:14:09;12.73;;;9.15;;
73980;SDS011;62348;51.412;5.436;2023-03-01T08:16:35;13.70;;;9.18;;
73980;SDS011;62348;51.412;5.436;2023-03-01T08:19:08;13.32;;;9.20;;
73980;SDS011;62348;51.412;5.436;2023-03-01T08:21:35;12.38;;;9.18;;
73980;SDS011;62348;51.412;5.436;2023-03-01T08:24:02;20.60;;;9.43;;
73980;SDS011;62348;51.412;5.436;2023-03-01T08:26:29;12.00;;;8.95;;
73980;SDS011;62348;51.412;5.436;2023-03-01T08:28:55;11.80;;;8.27;;
73980;SDS011;62348;51.412;5.436;2023-03-01T08:31:25;14.95;;;8.98;;
73980;SDS011;62348;51.412;5.436;2023-03-01T08:33:54;11.05;;;8.27;;
73980;SDS011;62348;51.412;5.436;2023-03-01T08:36:24;11.18;;;8.38;;
73980;SDS011;62348;51.412;5.436;2023-03-01T08:38:52;13.35;;;8.57;;
73980;SDS011;62348;51.412;5.436;2023-03-01T08:41:17;12.38;;;8.65;;
73980;SDS011;62348;51.412;5.436;2023-03-01T08:43:43;12.50;;;8.55;;
73980;SDS011;62348;51.412;5.436;2023-03-01T08:46:09;11.75;;;8.75;;
73980;SDS011;62348;51.412;5.436;2023-03-01T08:48:35;14.00;;;8.13;;
73980;SDS011;62348;51.412;5.436;2023-03-01T08:51:10;12.77;;;8.25;;
73980;SDS011;62348;51.412;5.436;2023-03-01T08:53:37;11.50;;;8.40;;
73980;SDS011;62348;51.412;5.436;2023-03-01T08:56:03;11.43;;;8.18;;
73980;SDS011;62348;51.412;5.436;2023-03-01T08:58:29;14.82;;;8.20;;
73980;SDS011;62348;51.412;5.436;2023-03-01T09:00:54;12.25;;;7.93;;
73980;SDS011;62348;51.412;5.436;2023-03-01T09:03:21;12.00;;;8.63;;
73980;SDS011;62348;51.412;5.436;2023-03-01T09:05:47;13.27;;;7.80;;
73980;SDS011;62348;51.412;5.436;2023-03-01T09:08:15;10.80;;;8.70;;
73980;SDS011;62348;51.412;5.436;2023-03-01T09:10:41;16.38;;;8.57;;
73980;SDS011;62348;51.412;5.436;2023-03-01T09:13:06;12.23;;;7.95;;
73980;SDS011;62348;51.412;5.436;2023-03-01T09:15:31;12.40;;;8.10;;
73980;SDS011;62348;51.412;5.436;2023-03-01T09:17:58;11.52;;;7.75;;
73980;SDS011;62348;51.412;5.436;2023-03-01T09:20:24;13.80;;;8.02;;
73980;SDS011;62348;51.412;5.436;2023-03-01T09:22:49;14.30;;;9.25;;
73980;SDS011;62348;51.412;5.436;2023-03-01T09:25:15;12.40;;;7.72;;
73980;SDS011;62348;51.412;5.436;2023-03-01T09:27:40;13.23;;;7.90;;
73980;SDS011;62348;51.412;5.436;2023-03-01T09:30:06;14.38;;;8.30;;
73980;SDS011;62348;51.412;5.436;2023-03-01T09:32:32;9.48;;;7.38;;
73980;SDS011;62348;51.412;5.436;2023-03-01T09:34:57;13.68;;;8.15;;
73980;SDS011;62348;51.412;5.436;2023-03-01T09:37:28;13.93;;;9.10;;
73980;SDS011;62348;51.412;5.436;2023-03-01T09:39:54;11.40;;;7.95;;
73980;SDS011;62348;51.412;5.436;2023-03-01T09:42:20;12.70;;;7.70;;
73980;SDS011;62348;51.412;5.436;2023-03-01T09:44:56;12.25;;;8.50;;
73980;SDS011;62348;51.412;5.436;2023-03-01T09:47:27;12.15;;;7.95;;
73980;SDS011;62348;51.412;5.436;2023-03-01T09:50:06;13.52;;;8.43;;
73980;SDS011;62348;51.412;5.436;2023-03-01T09:52:48;10.85;;;7.78;;
73980;SDS011;62348;51.412;5.436;2023-03-01T09:55:30;10.60;;;7.50;;
73980;SDS011;62348;51.412;5.436;2023-03-01T09:57:59;16.08;;;8.00;;
73980;SDS011;62348;51.412;5.436;2023-03-01T10:05:30;14.20;;;8.52;;
73980;SDS011;62348;51.412;5.436;2023-03-01T10:10:34;10.32;;;7.20;;
73980;SDS011;62348;51.412;5.436;2023-03-01T10:13:04;10.70;;;8.27;;
73980;SDS011;62348;51.412;5.436;2023-03-01T10:16:00;12.13;;;8.15;;
73980;SDS011;62348;51.412;5.436;2023-03-01T10:18:41;11.85;;;7.47;;
73980;SDS011;62348;51.412;5.436;2023-03-01T10:21:15;10.20;;;7.68;;
73980;SDS011;62348;51.412;5.436;2023-03-01T10:23:43;14.35;;;8.82;;
73980;SDS011;62348;51.412;5.436;2023-03-01T10:28:54;13.13;;;8.77;;
73980;SDS011;62348;51.412;5.436;2023-03-01T10:31:24;15.25;;;9.52;;
73980;SDS011;62348;51.412;5.436;2023-03-01T10:34:02;12.07;;;8.40;;
73980;SDS011;62348;51.412;5.436;2023-03-01T10:36:28;10.73;;;7.88;;
73980;SDS011;62348;51.412;5.436;2023-03-01T10:38:58;11.50;;;8.40;;
73980;SDS011;62348;51.412;5.436;2023-03-01T10:41:24;12.18;;;8.57;;
73980;SDS011;62348;51.412;5.436;2023-03-01T10:43:55;12.27;;;7.97;;
73980;SDS011;62348;51.412;5.436;2023-03-01T10:46:36;11.90;;;8.55;;
73980;SDS011;62348;51.412;5.436;2023-03-01T10:49:06;12.43;;;7.68;;
73980;SDS011;62348;51.412;5.436;2023-03-01T10:51:32;12.02;;;8.35;;
73980;SDS011;62348;51.412;5.436;2023-03-01T10:53:58;12.85;;;8.60;;
73980;SDS011;62348;51.412;5.436;2023-03-01T10:56:23;12.98;;;8.32;;
73980;SDS011;62348;51.412;5.436;2023-03-01T10:58:57;11.15;;;7.97;;
73980;SDS011;62348;51.412;5.436;2023-03-01T11:01:25;9.70;;;8.00;;
73980;SDS011;62348;51.412;5.436;2023-03-01T11:04:08;12.35;;;9.20;;
73980;SDS011;62348;51.412;5.436;2023-03-01T11:06:37;12.60;;;8.32;;
73980;SDS011;62348;51.412;5.436;2023-03-01T11:11:52;12.45;;;9.25;;
73980;SDS011;62348;51.412;5.436;2023-03-01T11:14:23;14.35;;;9.18;;
73980;SDS011;62348;51.412;5.436;2023-03-01T11:17:37;13.98;;;9.15;;
73980;SDS011;62348;51.412;5.436;2023-03-01T11:20:00;13.73;;;8.32;;
73980;SDS011;62348;51.412;5.436;2023-03-01T11:22:39;13.25;;;8.38;;
73980;SDS011;62348;51.412;5.436;2023-03-01T11:25:15;11.32;;;8.60;;
73980;SDS011;62348;51.412;5.436;2023-03-01T11:27:44;11.68;;;9.23;;
73980;SDS011;62348;51.412;5.436;2023-03-01T11:30:19;12.60;;;8.20;;
73980;SDS011;62348;51.412;5.436;2023-03-01T11:36:01;12.00;;;8.80;;
73980;SDS011;62348;51.412;5.436;2023-03-01T11:38:32;15.20;;;8.77;;
73980;SDS011;62348;51.412;5.436;2023-03-01T11:41:07;13.65;;;8.20;;
73980;SDS011;62348;51.412;5.436;2023-03-01T11:56:28;9.90;;;8.00;;
73980;SDS011;62348;51.412;5.436;2023-03-01T11:59:07;11.05;;;8.18;;
73980;SDS011;62348;51.412;5.436;2023-03-01T12:29:53;11.32;;;8.30;;
73980;SDS011;62348;51.412;5.436;2023-03-01T12:32:59;11.95;;;7.93;;
73980;SDS011;62348;51.412;5.436;2023-03-01T12:35:35;11.32;;;7.47;;
73980;SDS011;62348;51.412;5.436;2023-03-01T12:38:39;12.60;;;7.18;;
73980;SDS011;62348;51.412;5.436;2023-03-01T12:44:27;9.02;;;7.45;;
73980;SDS011;62348;51.412;5.436;2023-03-01T12:47:42;10.85;;;7.45;;
73980;SDS011;62348;51.412;5.436;2023-03-01T12:52:49;9.40;;;7.32;;
73980;SDS011;62348;51.412;5.436;2023-03-01T12:55:39;10.23;;;7.20;;
73980;SDS011;62348;51.412;5.436;2023-03-01T12:58:07;10.90;;;7.38;;
73980;SDS011;62348;51.412;5.436;2023-03-01T13:03:48;11.32;;;7.32;;
73980;SDS011;62348;51.412;5.436;2023-03-01T13:08:59;9.38;;;6.85;;
73980;SDS011;62348;51.412;5.436;2023-03-01T13:11:26;9.10;;;6.60;;
73980;SDS011;62348;51.412;5.436;2023-03-01T13:13:53;8.95;;;6.70;;
73980;SDS011;62348;51.412;5.436;2023-03-01T13:16:48;9.20;;;7.15;;
73980;SDS011;62348;51.412;5.436;2023-03-01T13:19:15;10.90;;;7.07;;
73980;SDS011;62348;51.412;5.436;2023-03-01T13:21:43;11.20;;;7.03;;
73980;SDS011;62348;51.412;5.436;2023-03-01T13:29:44;8.98;;;6.10;;
73980;SDS011;62348;51.412;5.436;2023-03-01T13:32:23;9.95;;;7.18;;
73980;SDS011;62348;51.412;5.436;2023-03-01T13:35:03;9.85;;;6.75;;
73980;SDS011;62348;51.412;5.436;2023-03-01T13:37:41;10.23;;;6.85;;
73980;SDS011;62348;51.412;5.436;2023-03-01T13:43:22;7.38;;;5.25;;
73980;SDS011;62348;51.412;5.436;2023-03-01T13:46:20;8.80;;;6.03;;
73980;SDS011;62348;51.412;5.436;2023-03-01T13:48:51;8.73;;;6.40;;
73980;SDS011;62348;51.412;5.436;2023-03-01T13:51:23;10.25;;;6.65;;
73980;SDS011;62348;51.412;5.436;2023-03-01T13:53:51;8.15;;;6.65;;
73980;SDS011;62348;51.412;5.436;2023-03-01T13:56:21;10.30;;;6.25;;
73980;SDS011;62348;51.412;5.436;2023-03-01T13:58:59;10.70;;;6.65;;
73980;SDS011;62348;51.412;5.436;2023-03-01T14:01:34;9.13;;;6.80;;
73980;SDS011;62348;51.412;5.436;2023-03-01T14:04:01;9.02;;;6.80;;
73980;SDS011;62348;51.412;5.436;2023-03-01T14:06:32;10.75;;;6.32;;
73980;SDS011;62348;51.412;5.436;2023-03-01T14:09:05;11.32;;;5.45;;
73980;SDS011;62348;51.412;5.436;2023-03-01T14:20:27;12.27;;;5.90;;
73980;SDS011;62348;51.412;5.436;2023-03-01T14:22:56;10.93;;;6.78;;
73980;SDS011;62348;51.412;5.436;2023-03-01T14:25:31;8.52;;;6.13;;
73980;SDS011;62348;51.412;5.436;2023-03-01T14:30:58;9.18;;;6.45;;
73980;SDS011;62348;51.412;5.436;2023-03-01T14:33:26;10.68;;;6.55;;
73980;SDS011;62348;51.412;5.436;2023-03-01T14:36:00;10.35;;;7.55;;
73980;SDS011;62348;51.412;5.436;2023-03-01T14:38:32;10.70;;;7.30;;
73980;SDS011;62348;51.412;5.436;2023-03-01T14:40:58;8.13;;;6.22;;
73980;SDS011;62348;51.412;5.436;2023-03-01T14:43:27;10.52;;;6.57;;
73980;SDS011;62348;51.412;5.436;2023-03-01T14:45:54;10.57;;;6.60;;
73980;SDS011;62348;51.412;5.436;2023-03-01T14:48:20;11.00;;;6.60;;
73980;SDS011;62348;51.412;5.436;2023-03-01T14:50:47;11.20;;;6.28;;
73980;SDS011;62348;51.412;5.436;2023-03-01T14:53:17;9.35;;;6.95;;
73980;SDS011;62348;51.412;5.436;2023-03-01T14:55:50;11.27;;;6.43;;
73980;SDS011;62348;51.412;5.436;2023-03-01T14:58:20;8.52;;;6.38;;
73980;SDS011;62348;51.412;5.436;2023-03-01T15:00:55;9.75;;;6.35;;
73980;SDS011;62348;51.412;5.436;2023-03-01T15:03:39;12.35;;;6.82;;
73980;SDS011;62348;51.412;5.436;2023-03-01T15:06:10;12.90;;;7.07;;
73980;SDS011;62348;51.412;5.436;2023-03-01T15:08:41;9.65;;;6.97;;
73980;SDS011;62348;51.412;5.436;2023-03-01T15:13:38;9.88;;;6.18;;
73980;SDS011;62348;51.412;5.436;2023-03-01T15:18:37;10.27;;;6.85;;
73980;SDS011;62348;51.412;5.436;2023-03-01T15:21:41;8.02;;;6.72;;
73980;SDS011;62348;51.412;5.436;2023-03-01T15:26:45;8.90;;;6.65;;
73980;SDS011;62348;51.412;5.436;2023-03-01T15:29:26;8.35;;;6.55;;
73980;SDS011;62348;51.412;5.436;2023-03-01T15:31:59;9.23;;;6.30;;
73980;SDS011;62348;51.412;5.436;2023-03-01T15:34:30;11.55;;;6.97;;
73980;SDS011;62348;51.412;5.436;2023-03-01T15:37:03;9.05;;;6.65;;
73980;SDS011;62348;51.412;5.436;2023-03-01T15:39:35;10.52;;;6.53;;
73980;SDS011;62348;51.412;5.436;2023-03-01T15:42:23;9.48;;;6.10;;
73980;SDS011;62348;51.412;5.436;2023-03-01T15:45:08;12.70;;;7.30;;
73980;SDS011;62348;51.412;5.436;2023-03-01T15:47:52;11.00;;;7.03;;
73980;SDS011;62348;51.412;5.436;2023-03-01T15:50:29;12.23;;;7.65;;
73980;SDS011;62348;51.412;5.436;2023-03-01T15:53:00;9.98;;;7.15;;
73980;SDS011;62348;51.412;5.436;2023-03-01T15:55:31;9.07;;;7.43;;
73980;SDS011;62348;51.412;5.436;2023-03-01T16:00:25;10.85;;;6.97;;
73980;SDS011;62348;51.412;5.436;2023-03-01T16:02:50;12.65;;;7.45;;
73980;SDS011;62348;51.412;5.436;2023-03-01T16:05:23;13.05;;;7.25;;
73980;SDS011;62348;51.412;5.436;2023-03-01T16:08:00;11.88;;;7.45;;
73980;SDS011;62348;51.412;5.436;2023-03-01T16:10:25;10.65;;;6.90;;
73980;SDS011;62348;51.412;5.436;2023-03-01T16:12:51;11.90;;;7.93;;
73980;SDS011;62348;51.412;5.436;2023-03-01T16:15:21;10.98;;;7.30;;
73980;SDS011;62348;51.412;5.436;2023-03-01T16:17:49;10.93;;;7.82;;
73980;SDS011;62348;51.412;5.436;2023-03-01T16:20:14;10.60;;;6.88;;
73980;SDS011;62348;51.412;5.436;2023-03-01T16:22:43;11.75;;;7.03;;
73980;SDS011;62348;51.412;5.436;2023-03-01T16:25:10;9.55;;;6.85;;
73980;SDS011;62348;51.412;5.436;2023-03-01T16:27:38;10.32;;;7.13;;
73980;SDS011;62348;51.412;5.436;2023-03-01T16:30:04;9.68;;;6.82;;
73980;SDS011;62348;51.412;5.436;2023-03-01T16:32:31;10.90;;;8.05;;
73980;SDS011;62348;51.412;5.436;2023-03-01T16:34:56;14.15;;;7.45;;
73980;SDS011;62348;51.412;5.436;2023-03-01T16:37:22;13.32;;;7.97;;
73980;SDS011;62348;51.412;5.436;2023-03-01T16:39:47;14.35;;;8.18;;
73980;SDS011;62348;51.412;5.436;2023-03-01T16:42:15;12.13;;;7.80;;
73980;SDS011;62348;51.412;5.436;2023-03-01T16:44:42;11.30;;;7.30;;
73980;SDS011;62348;51.412;5.436;2023-03-01T16:47:07;11.75;;;7.90;;
73980;SDS011;62348;51.412;5.436;2023-03-01T16:49:32;12.30;;;7.85;;